createdAt,value
2018-07-05T15:43:19.246Z,4.93
2018-07-05T15:45:59.502Z,5.67
2018-07-05T15:48:40.267Z,6.50
2018-07-05T15:51:20.216Z,6.03
2018-07-05T15:54:00.268Z,6.63
2018-07-05T15:56:40.418Z,4.93
2018-07-05T15:59:20.877Z,5.77
2018-07-05T16:02:01.952Z,6.23
2018-07-05T16:04:42.409Z,5.17
2018-07-05T16:07:16.622Z,6.07
2018-07-05T16:09:56.882Z,4.70
2018-07-05T16:12:36.929Z,4.77
2018-07-05T16:15:17.282Z,5.20
2018-07-05T16:17:57.436Z,5.10
2018-07-05T16:20:37.585Z,5.20
2018-07-05T16:23:17.741Z,5.40
2018-07-05T16:25:57.966Z,6.83
2018-07-05T16:28:38.013Z,6.07
2018-07-05T16:31:18.312Z,5.23
2018-07-05T16:33:58.458Z,4.90
2018-07-05T16:36:38.814Z,4.90
2018-07-05T16:39:18.967Z,6.07
2018-07-05T16:41:59.114Z,5.90
2018-07-05T16:44:39.374Z,5.97
2018-07-05T16:47:19.518Z,6.07
2018-07-05T16:50:00.183Z,5.80
2018-07-05T16:52:40.540Z,6.23
2018-07-05T18:17:29.875Z,5.90
2018-07-05T18:20:10.274Z,6.87
2018-07-05T18:22:50.996Z,8.73
2018-07-05T18:25:31.968Z,6.42
2018-07-05T18:28:11.985Z,7.80
2018-07-05T18:30:52.439Z,10.13
2018-07-05T18:33:32.397Z,6.97
2018-07-05T18:36:12.678Z,6.87
2018-07-05T18:38:52.727Z,6.65
2018-07-05T18:41:32.777Z,6.20
2018-07-05T18:44:12.930Z,6.85
2018-07-05T18:46:53.041Z,6.55
2018-07-05T18:49:33.134Z,6.53
2018-07-05T18:52:13.012Z,7.08
2018-07-05T18:54:52.918Z,6.75
2018-07-05T18:57:32.779Z,10.82
2018-07-05T19:00:12.701Z,8.55
2018-07-05T19:02:52.867Z,8.50
2018-07-05T19:05:32.940Z,8.00
2018-07-05T19:08:13.072Z,7.17
2018-07-05T19:10:53.233Z,7.37
2018-07-05T19:13:33.683Z,7.33
2018-07-05T19:16:13.711Z,7.12
2018-07-05T19:18:53.680Z,7.67
2018-07-05T19:21:33.698Z,9.88
2018-07-05T19:24:14.484Z,10.93
2018-07-05T19:26:54.451Z,13.53
2018-07-05T19:29:34.702Z,8.60
2018-07-05T19:32:15.928Z,8.85
2018-07-05T19:34:56.338Z,8.60
2018-07-05T19:37:37.085Z,9.08
2018-07-05T19:40:17.457Z,8.28
2018-07-05T19:42:59.760Z,9.70
2018-07-05T19:45:40.021Z,9.58
2018-07-05T19:48:20.181Z,9.53
2018-07-05T19:51:00.435Z,9.35
2018-07-05T19:53:40.878Z,12.88
2018-07-05T19:56:22.464Z,10.58
2018-07-05T19:59:02.826Z,8.80
2018-07-05T20:01:43.076Z,13.25
2018-07-05T20:04:23.351Z,9.28
2018-07-05T20:07:03.367Z,8.48
2018-07-05T20:09:43.324Z,7.65
2018-07-05T20:12:23.235Z,9.05
2018-07-05T20:15:03.230Z,7.97
2018-07-05T20:17:43.783Z,8.23
2018-07-05T20:20:23.832Z,8.13
2018-07-05T20:23:04.189Z,7.28
2018-07-05T20:25:44.238Z,7.97
2018-07-05T20:28:24.395Z,7.62
2018-07-05T20:31:04.643Z,10.30
2018-07-05T20:33:45.007Z,9.88
2018-07-05T20:36:25.055Z,9.20
2018-07-05T20:39:07.834Z,9.38
2018-07-05T20:41:48.166Z,9.03
2018-07-05T20:44:28.271Z,9.65
2018-07-05T20:47:08.735Z,11.68
2018-07-05T20:49:48.748Z,11.57
2018-07-05T20:52:29.039Z,10.10
2018-07-05T20:55:10.014Z,10.45
2018-07-05T20:57:50.059Z,12.98
2018-07-05T21:00:30.617Z,10.55
2018-07-05T21:03:10.872Z,9.40
2018-07-05T21:05:51.025Z,8.60
2018-07-05T21:08:31.386Z,10.10
2018-07-05T21:11:11.911Z,9.10
2018-07-05T21:13:53.015Z,9.48
2018-07-05T21:16:33.057Z,9.03
2018-07-05T21:19:13.130Z,8.73
2018-07-05T21:21:52.977Z,9.55
2018-07-05T21:24:32.997Z,8.15
2018-07-05T21:27:12.970Z,8.78
2018-07-05T21:29:52.869Z,7.80
2018-07-05T21:32:33.265Z,9.50
2018-07-05T21:35:13.392Z,7.95
2018-07-05T21:37:53.770Z,8.15
2018-07-05T21:40:34.537Z,8.18
2018-07-05T21:43:15.113Z,8.30
2018-07-05T21:45:55.519Z,7.65
2018-07-05T21:48:36.633Z,7.78
2018-07-05T21:51:16.989Z,8.15
2018-07-05T21:53:57.140Z,7.47
2018-07-05T21:56:42.825Z,8.08
2018-07-05T21:59:26.291Z,7.08
2018-07-05T22:02:07.068Z,8.23
2018-07-05T22:04:58.243Z,7.60
2018-07-05T22:07:45.133Z,7.15
2018-07-05T22:10:25.597Z,7.65
2018-07-05T22:13:10.171Z,6.78
2018-07-05T22:15:50.461Z,6.50
2018-07-05T22:18:41.005Z,7.65
2018-07-05T22:21:33.108Z,6.70
2018-07-05T22:24:19.946Z,6.42
2018-07-05T22:27:19.385Z,7.80
2018-07-05T22:30:09.759Z,6.65
2018-07-05T22:33:01.261Z,8.00
2018-07-05T22:35:53.784Z,7.97
2018-07-05T22:38:42.976Z,7.67
2018-07-05T22:41:35.183Z,7.65
2018-07-05T22:44:25.369Z,7.47
2018-07-05T22:47:16.240Z,8.10
2018-07-05T22:50:09.296Z,9.35
2018-07-05T22:52:59.044Z,9.00
2018-07-05T22:55:51.540Z,7.53
2018-07-05T22:58:43.749Z,8.40
2018-07-05T23:01:35.452Z,8.60
2018-07-05T23:04:25.722Z,8.05
2018-07-05T23:07:17.804Z,7.55
2018-07-05T23:10:07.998Z,7.50
2018-07-05T23:13:01.472Z,8.93
2018-07-05T23:15:51.254Z,8.63
2018-07-05T23:18:42.091Z,8.58
2018-07-05T23:21:34.112Z,8.23
2018-07-05T23:24:25.472Z,9.63
2018-07-05T23:27:15.902Z,9.85
2018-07-05T23:30:06.794Z,8.20
2018-07-05T23:32:56.830Z,8.85
2018-07-05T23:35:48.358Z,9.43
2018-07-05T23:38:33.220Z,9.05
2018-07-05T23:41:26.054Z,8.45
2018-07-05T23:44:18.932Z,8.88
2018-07-05T23:47:09.150Z,8.70
2018-07-05T23:49:57.824Z,7.75
2018-07-05T23:52:47.186Z,8.68
2018-07-05T23:55:30.189Z,8.80
2018-07-05T23:58:21.442Z,8.68
